createdAt,value
2017-12-13T00:00:10.052Z,964.58
2017-12-13T00:01:19.758Z,964.57
2017-12-13T00:02:29.740Z,964.57
2017-12-13T00:03:39.450Z,964.55
2017-12-13T00:04:49.154Z,964.51
2017-12-13T00:05:59.125Z,964.55
2017-12-13T00:07:09.107Z,964.5
2017-12-13T00:08:19.079Z,964.48
2017-12-13T00:09:29.047Z,964.47
2017-12-13T00:10:39.018Z,964.44
2017-12-13T00:11:48.987Z,964.45
2017-12-13T00:12:58.973Z,964.44
2017-12-13T00:14:08.942Z,964.38
2017-12-13T00:15:18.919Z,964.42
2017-12-13T00:16:28.636Z,964.44
2017-12-13T00:17:38.367Z,964.45
2017-12-13T00:18:48.342Z,964.44
2017-12-13T00:19:58.050Z,964.46
2017-12-13T00:21:07.759Z,964.44
2017-12-13T00:22:17.729Z,964.42
2017-12-13T00:23:27.705Z,964.4
2017-12-13T00:24:37.687Z,964.41
2017-12-13T00:25:47.660Z,964.43
2017-12-13T00:26:57.633Z,964.42
2017-12-13T00:28:07.601Z,964.4
2017-12-13T00:29:17.575Z,964.39
2017-12-13T00:30:27.543Z,964.36
2017-12-13T00:31:37.573Z,964.41
2017-12-13T00:32:47.546Z,964.45
2017-12-13T00:33:57.515Z,964.48
2017-12-13T00:35:07.231Z,964.41
2017-12-13T00:36:16.939Z,964.42
2017-12-13T00:37:26.905Z,964.46
2017-12-13T00:38:36.610Z,964.46
2017-12-13T00:39:46.583Z,964.5
2017-12-13T00:40:56.561Z,964.48
2017-12-13T00:42:06.026Z,964.55
2017-12-13T00:43:16.009Z,964.53
2017-12-13T00:44:25.448Z,964.52
2017-12-13T00:45:35.423Z,964.53
2017-12-13T00:46:45.398Z,964.48
2017-12-13T00:47:55.370Z,964.46
2017-12-13T00:49:05.340Z,964.37
2017-12-13T00:50:15.343Z,964.45
2017-12-13T00:51:25.322Z,964.41
2017-12-13T00:52:35.023Z,964.44
2017-12-13T00:53:44.992Z,964.39
2017-12-13T00:54:54.701Z,964.33
2017-12-13T00:56:04.675Z,964.39
2017-12-13T00:57:14.383Z,964.4
2017-12-13T00:58:24.085Z,964.41
2017-12-13T00:59:34.054Z,964.42
2017-12-13T01:00:44.027Z,964.37
2017-12-13T01:01:54.004Z,964.33
2017-12-13T01:03:03.977Z,964.32
2017-12-13T01:04:13.945Z,964.35
2017-12-13T01:05:23.968Z,964.31
2017-12-13T01:06:33.674Z,964.33
2017-12-13T01:07:43.647Z,964.35
2017-12-13T01:08:53.615Z,964.38
2017-12-13T01:10:03.590Z,964.39
2017-12-13T01:11:13.298Z,964.37
2017-12-13T01:12:23.327Z,964.35
2017-12-13T01:13:33.298Z,964.31
2017-12-13T01:14:43.267Z,964.32
2017-12-13T01:15:52.969Z,964.32
2017-12-13T01:17:02.942Z,964.36
2017-12-13T01:18:12.915Z,964.4
2017-12-13T01:19:22.885Z,964.38
2017-12-13T01:20:32.866Z,964.32
2017-12-13T01:21:42.857Z,964.28
2017-12-13T01:22:52.836Z,964.28
2017-12-13T01:24:02.811Z,964.25
2017-12-13T01:25:12.790Z,964.24
2017-12-13T01:26:22.763Z,964.26
2017-12-13T01:27:32.739Z,964.26
2017-12-13T01:28:42.714Z,964.29
2017-12-13T01:29:52.685Z,964.27
2017-12-13T01:31:02.663Z,964.27
2017-12-13T01:32:12.642Z,964.3
2017-12-13T01:33:22.611Z,964.27
2017-12-13T01:34:32.584Z,964.28
2017-12-13T01:35:42.553Z,964.27
2017-12-13T01:36:52.527Z,964.28
2017-12-13T01:38:02.230Z,964.32
2017-12-13T01:39:11.934Z,964.28
2017-12-13T01:40:21.901Z,964.21
2017-12-13T01:41:31.872Z,964.22
2017-12-13T01:42:41.607Z,964.25
2017-12-13T01:43:51.582Z,964.21
2017-12-13T01:45:01.557Z,964.24
2017-12-13T01:46:11.526Z,964.3
2017-12-13T01:47:21.560Z,964.32
2017-12-13T01:48:31.591Z,964.26
2017-12-13T01:49:41.665Z,964.22
2017-12-13T01:50:51.637Z,964.24
2017-12-13T01:52:01.613Z,964.26
2017-12-13T01:53:11.585Z,964.24
2017-12-13T01:54:21.562Z,964.21
2017-12-13T01:55:31.274Z,964.21
2017-12-13T01:56:41.241Z,964.15
2017-12-13T01:57:51.215Z,964.09
2017-12-13T01:59:01.184Z,964.12
2017-12-13T02:00:11.157Z,964.12
2017-12-13T02:01:21.132Z,964.08
2017-12-13T02:02:31.101Z,964.08
2017-12-13T02:03:41.072Z,964.04
2017-12-13T02:04:51.044Z,964.04
2017-12-13T02:06:01.017Z,964.1
2017-12-13T02:07:10.990Z,964.11
2017-12-13T02:08:20.699Z,964.12
2017-12-13T02:09:30.674Z,964.14
2017-12-13T02:10:40.647Z,964.11
2017-12-13T02:11:50.616Z,964.15
2017-12-13T02:13:00.324Z,964.2
2017-12-13T02:14:10.300Z,964.23
2017-12-13T02:15:20.276Z,964.2
2017-12-13T02:16:30.248Z,964.15
2017-12-13T02:17:39.687Z,964.09
2017-12-13T02:18:49.662Z,964.13
2017-12-13T02:19:59.367Z,964.11
2017-12-13T02:21:08.807Z,964.14
2017-12-13T02:22:18.786Z,964.1
2017-12-13T02:23:28.232Z,964.05
2017-12-13T02:24:38.201Z,964.05
2017-12-13T02:25:48.230Z,964.07
2017-12-13T02:26:58.199Z,964.18
2017-12-13T02:28:08.172Z,964.18
2017-12-13T02:29:18.152Z,964.17
2017-12-13T02:30:27.855Z,964.18
2017-12-13T02:31:37.830Z,964.16
2017-12-13T02:32:47.316Z,964.12
2017-12-13T02:33:57.030Z,964.1
2017-12-13T02:35:07.008Z,964.05
2017-12-13T02:36:16.987Z,964.04
2017-12-13T02:37:26.963Z,964.05
2017-12-13T02:38:36.681Z,964.08
2017-12-13T02:39:46.655Z,964.05
2017-12-13T02:40:56.361Z,963.98
2017-12-13T02:42:06.333Z,964.05
2017-12-13T02:43:16.038Z,964.07
2017-12-13T02:44:26.022Z,964.06
2017-12-13T02:45:35.483Z,964.05
2017-12-13T02:46:45.453Z,964.02
2017-12-13T02:47:55.438Z,964.01
2017-12-13T02:49:05.458Z,963.99
2017-12-13T02:50:15.446Z,963.98
2017-12-13T02:51:25.418Z,963.97
2017-12-13T02:52:35.402Z,963.96
2017-12-13T02:53:45.373Z,963.96
2017-12-13T02:54:55.354Z,963.99
2017-12-13T02:56:05.329Z,963.95
2017-12-13T02:57:15.303Z,963.94
2017-12-13T02:58:25.015Z,963.93
2017-12-13T02:59:35.065Z,963.89
2017-12-13T03:00:45.033Z,963.86
2017-12-13T03:01:55.021Z,963.83
2017-12-13T03:03:04.990Z,963.8
2017-12-13T03:04:14.964Z,963.75
2017-12-13T03:05:24.939Z,963.81
2017-12-13T03:06:34.908Z,963.77
2017-12-13T03:07:44.948Z,963.71
2017-12-13T03:08:54.925Z,963.73
2017-12-13T03:10:04.895Z,963.74
2017-12-13T03:11:14.872Z,963.77
2017-12-13T03:12:24.849Z,963.77
2017-12-13T03:13:34.822Z,963.72
2017-12-13T03:14:44.847Z,963.79
2017-12-13T03:15:54.922Z,963.78
2017-12-13T03:17:04.895Z,963.72
2017-12-13T03:18:14.605Z,963.7
2017-12-13T03:19:24.580Z,963.64
2017-12-13T03:20:34.552Z,963.62
2017-12-13T03:21:44.522Z,963.6
2017-12-13T03:22:54.490Z,963.59
2017-12-13T03:24:04.195Z,963.56
2017-12-13T03:25:13.900Z,963.48
2017-12-13T03:26:23.942Z,963.48
2017-12-13T03:27:33.910Z,963.53
2017-12-13T03:28:43.877Z,963.53
2017-12-13T03:29:53.849Z,963.53
2017-12-13T03:31:03.833Z,963.5
2017-12-13T03:32:13.832Z,963.47
2017-12-13T03:33:23.807Z,963.49
2017-12-13T03:34:33.775Z,963.52
2017-12-13T03:35:43.762Z,963.51
2017-12-13T03:36:53.735Z,963.49
2017-12-13T03:38:03.717Z,963.49
2017-12-13T03:39:13.686Z,963.48
2017-12-13T03:40:23.393Z,963.45
2017-12-13T03:41:33.364Z,963.44
2017-12-13T03:42:43.334Z,963.37
2017-12-13T03:43:53.049Z,963.41
2017-12-13T03:45:03.023Z,963.4
2017-12-13T03:46:12.998Z,963.42
2017-12-13T03:47:22.983Z,963.37
2017-12-13T03:48:32.955Z,963.43
2017-12-13T03:49:42.926Z,963.42
2017-12-13T03:50:52.904Z,963.47
2017-12-13T03:52:02.874Z,963.5
2017-12-13T03:53:12.320Z,963.52
2017-12-13T03:54:22.295Z,963.43
2017-12-13T03:55:32.267Z,963.41
2017-12-13T03:56:42.236Z,963.35
2017-12-13T03:57:51.943Z,963.29
2017-12-13T03:59:01.912Z,963.35
2017-12-13T04:04:38.037Z,963.2
2017-12-13T04:05:47.741Z,963.17
2017-12-13T04:06:57.709Z,963.17
2017-12-13T04:08:07.419Z,963.2
2017-12-13T04:09:17.128Z,963.23
2017-12-13T04:10:27.101Z,963.27
2017-12-13T04:11:37.081Z,963.26
2017-12-13T04:12:46.789Z,963.24
2017-12-13T04:13:56.497Z,963.31
2017-12-13T04:15:09.974Z,963.21
2017-12-13T04:16:19.680Z,963.22
2017-12-13T04:17:29.391Z,963.14
2017-12-13T04:18:39.363Z,963.19
2017-12-13T04:19:49.393Z,963.12
2017-12-13T04:20:59.425Z,963.16
2017-12-13T04:22:09.134Z,963.16
2017-12-13T04:23:18.577Z,963.09
2017-12-13T04:24:28.016Z,963.07
2017-12-13T04:25:37.997Z,963.05
2017-12-13T04:26:47.969Z,963.03
2017-12-13T04:27:58.003Z,963.04
2017-12-13T04:29:07.712Z,963.04
2017-12-13T04:30:17.428Z,963.06
2017-12-13T04:31:27.140Z,963.08
2017-12-13T04:32:36.847Z,963.01
2017-12-13T04:33:46.285Z,963.07
2017-12-13T04:34:56.257Z,963.07
2017-12-13T04:36:05.966Z,963.04
2017-12-13T04:37:15.684Z,963.03
2017-12-13T04:38:25.661Z,963.03
2017-12-13T04:39:35.643Z,963.02
2017-12-13T04:40:45.614Z,963.01
2017-12-13T04:41:55.598Z,963.08
2017-12-13T04:43:05.592Z,963.07
2017-12-13T04:44:15.565Z,963.06
2017-12-13T04:45:25.548Z,963.11
2017-12-13T04:46:35.516Z,963.05
2017-12-13T04:47:44.696Z,963.07
2017-12-13T04:48:54.664Z,963.09
2017-12-13T04:50:04.635Z,963.06
2017-12-13T04:51:14.614Z,963.11
2017-12-13T04:52:24.588Z,963.08
2017-12-13T04:53:34.303Z,963
2017-12-13T04:54:44.284Z,962.99
2017-12-13T04:55:54.001Z,962.95
2017-12-13T04:57:03.976Z,962.94
2017-12-13T04:58:13.948Z,962.95
2017-12-13T04:59:23.919Z,962.93
2017-12-13T05:00:33.899Z,962.97
2017-12-13T05:01:44.868Z,962.98
2017-12-13T05:02:54.840Z,963.06
2017-12-13T05:04:04.829Z,963.1
2017-12-13T05:05:14.864Z,963.12
2017-12-13T05:06:24.573Z,963.09
2017-12-13T05:07:34.543Z,963.09
2017-12-13T05:08:44.519Z,963.09
2017-12-13T05:09:54.495Z,963.18
2017-12-13T05:11:04.466Z,963.13
2017-12-13T05:12:14.185Z,963.14
2017-12-13T05:13:26.162Z,963.15
2017-12-13T05:14:36.140Z,963.14
2017-12-13T05:15:46.111Z,963.1
2017-12-13T05:16:56.088Z,963.15
2017-12-13T05:18:06.059Z,963.14
2017-12-13T05:19:16.030Z,963.12
2017-12-13T05:20:26.024Z,963.06
2017-12-13T05:21:36.042Z,963.1
2017-12-13T05:22:46.021Z,963.03
2017-12-13T05:23:56.002Z,962.95
2017-12-13T05:25:05.978Z,962.9
2017-12-13T05:26:15.978Z,962.9
2017-12-13T05:27:25.951Z,962.88
2017-12-13T05:28:35.929Z,962.9
2017-12-13T05:29:45.894Z,962.91
2017-12-13T05:30:55.609Z,962.9
2017-12-13T05:32:05.050Z,962.81
2017-12-13T05:33:14.495Z,962.82
2017-12-13T05:34:24.469Z,962.83
2017-12-13T05:35:34.184Z,962.9
2017-12-13T05:36:44.152Z,962.95
2017-12-13T05:37:53.860Z,962.92
2017-12-13T05:39:03.302Z,962.91
2017-12-13T05:40:13.272Z,962.93
2017-12-13T05:41:23.244Z,962.89
2017-12-13T05:42:32.958Z,962.86
2017-12-13T05:43:42.939Z,962.85
2017-12-13T05:44:52.905Z,962.88
2017-12-13T05:46:02.879Z,962.88
2017-12-13T05:47:12.851Z,962.91
2017-12-13T05:48:22.822Z,962.97
2017-12-13T05:49:32.805Z,962.93
2017-12-13T05:50:42.781Z,962.95
2017-12-13T05:51:52.490Z,962.9
2017-12-13T05:53:02.199Z,962.85
2017-12-13T05:54:12.174Z,962.87
2017-12-13T05:55:22.151Z,962.9
2017-12-13T05:56:32.122Z,962.91
2017-12-13T05:57:41.830Z,962.89
2017-12-13T05:58:51.802Z,962.86
2017-12-13T06:00:01.771Z,962.87
2017-12-13T06:01:11.744Z,962.84
2017-12-13T06:02:21.718Z,962.77
2017-12-13T06:03:31.420Z,962.8
2017-12-13T06:04:41.393Z,962.79
2017-12-13T06:05:51.368Z,962.78
2017-12-13T06:07:01.335Z,962.73
2017-12-13T06:08:11.042Z,962.7
2017-12-13T06:09:21.016Z,962.67
2017-12-13T06:10:30.723Z,962.59
2017-12-13T06:11:40.695Z,962.56
2017-12-13T06:12:50.667Z,962.56
2017-12-13T06:14:00.640Z,962.57
2017-12-13T06:15:10.091Z,962.6
2017-12-13T06:16:20.067Z,962.65
2017-12-13T06:17:29.777Z,962.63
2017-12-13T06:18:39.484Z,962.59
2017-12-13T06:19:49.457Z,962.59
2017-12-13T06:20:59.222Z,962.61
2017-12-13T06:22:08.937Z,962.59
2017-12-13T06:23:18.916Z,962.55
2017-12-13T06:24:28.364Z,962.6
2017-12-13T06:25:38.346Z,962.61
2017-12-13T06:26:48.324Z,962.61
2017-12-13T06:27:58.307Z,962.6
2017-12-13T06:29:08.282Z,962.6
2017-12-13T06:30:18.251Z,962.59
2017-12-13T06:31:28.225Z,962.61
2017-12-13T06:32:38.202Z,962.5
2017-12-13T06:33:48.173Z,962.53
2017-12-13T06:34:58.143Z,962.45
2017-12-13T06:36:08.131Z,962.48
2017-12-13T06:37:17.844Z,962.43
2017-12-13T06:38:27.827Z,962.37
2017-12-13T06:39:37.807Z,962.32
2017-12-13T06:40:47.520Z,962.37
2017-12-13T06:41:57.491Z,962.36
2017-12-13T06:43:07.464Z,962.41
2017-12-13T06:44:17.445Z,962.44
2017-12-13T06:45:27.419Z,962.38
2017-12-13T06:46:37.402Z,962.3
2017-12-13T06:47:47.376Z,962.27
2017-12-13T06:48:57.351Z,962.32
2017-12-13T06:50:06.799Z,962.38
2017-12-13T06:51:16.515Z,962.34
2017-12-13T06:52:25.955Z,962.32
2017-12-13T06:53:35.714Z,962.28
2017-12-13T06:54:45.690Z,962.25
2017-12-13T06:55:55.675Z,962.22
2017-12-13T06:57:05.392Z,962.27
2017-12-13T06:58:15.385Z,962.26
2017-12-13T06:59:25.363Z,962.2
2017-12-13T07:00:35.337Z,962.2
2017-12-13T07:01:45.308Z,962.18
2017-12-13T07:02:55.015Z,962.18
2017-12-13T07:04:04.999Z,962.2
2017-12-13T07:05:14.710Z,962.14
2017-12-13T07:06:24.154Z,962.22
2017-12-13T07:07:34.129Z,962.22
2017-12-13T07:08:43.843Z,962.24
2017-12-13T07:09:53.814Z,962.17
2017-12-13T07:11:03.263Z,962.25
2017-12-13T07:12:13.247Z,962.29
2017-12-13T07:13:23.220Z,962.33
2017-12-13T07:14:33.192Z,962.43
2017-12-13T07:15:43.166Z,962.4
2017-12-13T07:16:52.876Z,962.38
2017-12-13T07:18:02.588Z,962.38
2017-12-13T07:19:12.296Z,962.4
2017-12-13T07:20:22.006Z,962.41
2017-12-13T07:21:31.984Z,962.42
2017-12-13T07:22:41.962Z,962.33
2017-12-13T07:23:51.935Z,962.33
2017-12-13T07:25:01.914Z,962.26
2017-12-13T07:26:11.894Z,962.23
2017-12-13T07:27:21.872Z,962.16
2017-12-13T07:28:31.847Z,962.12
2017-12-13T07:29:41.826Z,962.16
2017-12-13T07:30:51.800Z,962.14
2017-12-13T07:32:01.779Z,962.13
2017-12-13T07:33:11.494Z,962.11
2017-12-13T07:34:21.470Z,962.12
2017-12-13T07:35:31.455Z,962.11
2017-12-13T07:36:41.437Z,962.08
2017-12-13T07:37:51.409Z,962.01
2017-12-13T07:39:01.391Z,962.06
2017-12-13T07:40:11.359Z,962.06
2017-12-13T07:41:21.339Z,962.13
2017-12-13T07:42:31.311Z,962.12
2017-12-13T07:43:41.026Z,962.14
2017-12-13T07:44:51.004Z,962.09
2017-12-13T07:46:00.717Z,962.11
2017-12-13T07:47:10.439Z,962.12
2017-12-13T07:48:20.157Z,962.17
2017-12-13T07:49:29.610Z,962.13
2017-12-13T07:50:39.582Z,962.13
2017-12-13T07:51:49.554Z,962.11
2017-12-13T07:52:59.531Z,962.09
2017-12-13T07:54:09.503Z,962.04
2017-12-13T07:55:19.482Z,962.06
2017-12-13T07:56:29.468Z,962.1
2017-12-13T07:57:39.179Z,962.08
2017-12-13T07:58:49.153Z,962.03
2017-12-13T07:59:58.857Z,962.06
2017-12-13T08:01:08.307Z,962.05
2017-12-13T08:02:18.292Z,961.99
2017-12-13T08:03:28.001Z,962.01
2017-12-13T08:04:37.720Z,961.99
2017-12-13T08:05:47.696Z,962.01
2017-12-13T08:06:57.676Z,962.09
2017-12-13T08:08:07.385Z,962.18
2017-12-13T08:09:17.360Z,962.11
2017-12-13T08:10:27.345Z,962.05
2017-12-13T08:11:37.063Z,962.09
2017-12-13T08:12:46.774Z,962.07
2017-12-13T08:13:56.751Z,962.03
2017-12-13T08:15:06.463Z,961.99
2017-12-13T08:16:16.169Z,962.09
2017-12-13T08:17:25.879Z,962.11
2017-12-13T08:18:35.871Z,962.03
2017-12-13T08:19:45.845Z,961.99
2017-12-13T08:20:55.828Z,961.96
2017-12-13T08:22:05.810Z,961.97
2017-12-13T08:23:15.519Z,961.92
2017-12-13T08:24:24.974Z,961.9
2017-12-13T08:25:34.997Z,961.96
2017-12-13T08:26:44.703Z,961.98
2017-12-13T08:27:54.146Z,962.05
2017-12-13T08:29:03.891Z,962.02
2017-12-13T08:30:13.332Z,962.08
2017-12-13T08:31:23.042Z,962.11
2017-12-13T08:32:33.021Z,961.98
2017-12-13T08:33:42.736Z,961.92
2017-12-13T08:34:52.716Z,961.84
2017-12-13T08:36:02.700Z,961.76
2017-12-13T08:37:12.413Z,961.83
2017-12-13T08:38:22.400Z,961.88
2017-12-13T08:39:32.371Z,961.86
2017-12-13T08:40:42.088Z,961.84
2017-12-13T08:41:51.805Z,961.82
2017-12-13T08:43:01.782Z,961.88
2017-12-13T08:44:11.762Z,961.92
2017-12-13T08:45:21.745Z,961.91
2017-12-13T08:46:31.714Z,961.87
2017-12-13T08:47:41.432Z,961.79
2017-12-13T08:48:51.406Z,961.77
2017-12-13T08:50:01.381Z,961.72
2017-12-13T08:51:10.837Z,961.77
2017-12-13T08:52:20.812Z,961.8
2017-12-13T08:53:30.795Z,961.76
2017-12-13T08:54:40.773Z,961.73
2017-12-13T08:55:50.479Z,961.7
2017-12-13T08:57:00.455Z,961.67
2017-12-13T08:58:10.162Z,961.59
2017-12-13T08:59:20.134Z,961.6
2017-12-13T09:00:30.108Z,961.6
2017-12-13T09:01:40.092Z,961.64
2017-12-13T09:02:50.072Z,961.74
2017-12-13T09:03:59.783Z,961.69
2017-12-13T09:05:09.250Z,961.67
2017-12-13T09:06:19.222Z,961.63
2017-12-13T09:07:28.932Z,961.69
2017-12-13T09:08:38.905Z,961.73
2017-12-13T09:09:48.621Z,961.69
2017-12-13T09:10:58.596Z,961.67
2017-12-13T09:12:08.304Z,961.58
2017-12-13T09:13:18.014Z,961.5
2017-12-13T09:14:27.992Z,961.48
2017-12-13T09:15:37.702Z,961.5
2017-12-13T09:16:47.675Z,961.49
2017-12-13T09:17:57.121Z,961.52
2017-12-13T09:19:07.089Z,961.55
2017-12-13T09:20:16.803Z,961.53
2017-12-13T09:21:26.781Z,961.51
2017-12-13T09:22:36.491Z,961.41
2017-12-13T09:23:46.206Z,961.43
2017-12-13T09:24:56.178Z,961.49
2017-12-13T09:26:05.894Z,961.45
2017-12-13T09:27:15.868Z,961.52
2017-12-13T09:28:25.843Z,961.47
2017-12-13T09:29:35.820Z,961.5
2017-12-13T09:30:45.526Z,961.57
2017-12-13T09:31:55.505Z,961.56
2017-12-13T09:33:05.478Z,961.53
2017-12-13T09:34:15.449Z,961.46
2017-12-13T09:35:25.427Z,961.36
2017-12-13T09:36:35.440Z,961.41
2017-12-13T09:37:45.425Z,961.4
2017-12-13T09:38:55.403Z,961.34
2017-12-13T09:40:05.116Z,961.29
2017-12-13T09:41:15.097Z,961.25
2017-12-13T09:42:25.071Z,961.22
2017-12-13T09:43:35.044Z,961.24
2017-12-13T09:44:45.028Z,961.18
2017-12-13T09:45:55.011Z,961.02
2017-12-13T09:47:05.688Z,961
2017-12-13T09:48:15.159Z,961.12
2017-12-13T09:49:25.137Z,961.14
2017-12-13T09:50:34.916Z,961.2
2017-12-13T09:51:44.902Z,961.24
2017-12-13T09:52:54.877Z,961.35
2017-12-13T09:54:04.862Z,961.39
2017-12-13T09:55:14.572Z,961.46
2017-12-13T09:56:24.564Z,961.55
2017-12-13T09:57:34.542Z,961.51
2017-12-13T09:58:44.300Z,961.44
2017-12-13T09:59:54.281Z,961.43
2017-12-13T10:01:04.258Z,961.41
2017-12-13T10:02:14.234Z,961.49
2017-12-13T10:03:24.210Z,961.45
2017-12-13T10:04:34.286Z,961.42
2017-12-13T10:05:43.996Z,961.36
2017-12-13T10:06:53.971Z,961.36
2017-12-13T10:08:03.948Z,961.26
2017-12-13T10:09:13.922Z,961.24
2017-12-13T10:10:23.897Z,961.25
2017-12-13T10:11:33.604Z,961.31
2017-12-13T10:12:43.590Z,961.21
2017-12-13T10:13:53.574Z,961.17
2017-12-13T10:15:03.550Z,961.12
2017-12-13T10:16:13.346Z,961.12
2017-12-13T10:17:23.322Z,961.13
2017-12-13T10:18:33.098Z,961.06
2017-12-13T10:19:42.279Z,961.03
2017-12-13T10:20:51.993Z,961.06
2017-12-13T10:22:01.702Z,961.07
2017-12-13T10:23:11.688Z,961.01
2017-12-13T10:24:21.666Z,961.03
2017-12-13T10:25:31.382Z,961.04
2017-12-13T10:26:41.366Z,961.04
2017-12-13T10:27:51.347Z,961.06
2017-12-13T10:29:01.333Z,961
2017-12-13T10:30:11.310Z,960.98
2017-12-13T10:31:21.281Z,960.98
2017-12-13T10:32:31.258Z,961
2017-12-13T10:33:41.244Z,961.01
2017-12-13T10:34:51.216Z,961
2017-12-13T10:36:01.188Z,961.05
2017-12-13T10:37:11.168Z,960.98
2017-12-13T10:38:21.153Z,960.98
2017-12-13T10:39:30.863Z,960.91
2017-12-13T10:40:40.837Z,960.83
2017-12-13T10:41:50.817Z,960.82
2017-12-13T10:43:00.532Z,960.9
2017-12-13T10:44:10.241Z,960.89
2017-12-13T10:45:20.230Z,960.87
2017-12-13T10:46:29.944Z,960.9
2017-12-13T10:47:39.666Z,960.88
2017-12-13T10:48:49.649Z,960.78
2017-12-13T10:49:59.627Z,960.84
2017-12-13T10:51:09.605Z,960.82
2017-12-13T10:52:19.579Z,960.75
2017-12-13T10:53:29.287Z,960.75
2017-12-13T10:54:39.266Z,960.67
2017-12-13T10:55:49.245Z,960.69
2017-12-13T10:57:01.222Z,960.68
2017-12-13T10:58:10.931Z,960.73
2017-12-13T10:59:20.908Z,960.7
2017-12-13T11:00:30.619Z,960.73
2017-12-13T11:01:40.598Z,960.64
2017-12-13T11:02:50.316Z,960.61
2017-12-13T11:04:00.023Z,960.65
2017-12-13T11:05:09.735Z,960.58
2017-12-13T11:06:19.445Z,960.53
2017-12-13T11:07:29.420Z,960.54
2017-12-13T11:08:39.392Z,960.61
2017-12-13T11:09:49.366Z,960.55
2017-12-13T11:10:59.347Z,960.61
2017-12-13T11:12:09.321Z,960.58
2017-12-13T11:13:19.032Z,960.6
2017-12-13T11:14:28.751Z,960.53
2017-12-13T11:15:38.725Z,960.51
2017-12-13T11:16:48.706Z,960.46
2017-12-13T11:17:58.682Z,960.46
2017-12-13T11:19:08.660Z,960.45
2017-12-13T11:20:18.382Z,960.46
2017-12-13T11:21:28.370Z,960.41
2017-12-13T11:22:38.339Z,960.35
2017-12-13T11:23:48.046Z,960.4
2017-12-13T11:24:58.029Z,960.31
2017-12-13T11:26:08.258Z,960.31
2017-12-13T11:27:17.968Z,960.27
2017-12-13T11:28:27.942Z,960.24
2017-12-13T11:29:37.923Z,960.22
2017-12-13T11:30:47.903Z,960.17
2017-12-13T11:31:57.885Z,960.18
2017-12-13T11:33:07.863Z,960.14
2017-12-13T11:34:17.834Z,960.1
2017-12-13T11:35:27.545Z,960.14
2017-12-13T11:36:36.987Z,960.12
2017-12-13T11:37:48.700Z,960.11
2017-12-13T11:38:58.690Z,960.09
2017-12-13T11:40:08.675Z,960.05
2017-12-13T11:41:18.391Z,960
2017-12-13T11:42:28.373Z,959.98
2017-12-13T11:43:38.356Z,960
2017-12-13T11:44:48.078Z,959.95
2017-12-13T11:45:58.058Z,959.95
2017-12-13T11:47:08.585Z,959.94
2017-12-13T11:48:18.580Z,960
2017-12-13T11:49:28.559Z,959.91
2017-12-13T11:50:38.531Z,959.87
2017-12-13T11:51:48.503Z,959.88
2017-12-13T11:52:58.479Z,959.88
2017-12-13T11:54:08.453Z,959.89
2017-12-13T11:55:18.579Z,959.83
2017-12-13T11:56:28.555Z,959.79
2017-12-13T11:57:38.264Z,959.72
2017-12-13T11:58:48.244Z,959.74
2017-12-13T11:59:58.223Z,959.69
2017-12-13T12:01:07.938Z,959.68
2017-12-13T12:02:17.654Z,959.61
2017-12-13T12:03:27.657Z,959.53
2017-12-13T12:04:37.634Z,959.54
2017-12-13T12:05:47.612Z,959.5
2017-12-13T12:06:57.371Z,959.49
2017-12-13T12:08:07.343Z,959.53
2017-12-13T12:09:17.055Z,959.47
2017-12-13T12:10:27.025Z,959.45
2017-12-13T12:11:36.732Z,959.5
2017-12-13T12:12:46.718Z,959.44
2017-12-13T12:13:56.692Z,959.37
2017-12-13T12:15:06.403Z,959.38
2017-12-13T12:16:16.386Z,959.33
2017-12-13T12:17:25.835Z,959.27
2017-12-13T12:18:35.806Z,959.31
2017-12-13T12:19:45.520Z,959.29
2017-12-13T12:20:55.502Z,959.28
2017-12-13T12:22:05.226Z,959.25
2017-12-13T12:23:15.210Z,959.25
2017-12-13T12:24:25.194Z,959.23
2017-12-13T12:25:35.170Z,959.23
2017-12-13T12:26:45.142Z,959.18
2017-12-13T12:27:55.127Z,959.17
2017-12-13T12:29:05.104Z,959.15
2017-12-13T12:30:15.078Z,959.18
2017-12-13T12:31:24.788Z,959.15
2017-12-13T12:32:34.502Z,959.15
2017-12-13T12:33:44.484Z,959.11
2017-12-13T12:34:54.194Z,959.13
2017-12-13T12:36:04.168Z,959.07
2017-12-13T12:37:14.144Z,959.04
2017-12-13T12:38:24.125Z,959.04
2017-12-13T12:39:34.156Z,958.99
2017-12-13T12:40:44.132Z,959
2017-12-13T12:41:53.837Z,959
2017-12-13T12:43:03.821Z,958.96
2017-12-13T12:44:13.794Z,959
2017-12-13T12:45:23.775Z,958.97
2017-12-13T12:46:33.756Z,958.94
2017-12-13T12:47:45.750Z,958.94
2017-12-13T12:48:55.726Z,958.91
2017-12-13T12:50:05.702Z,958.83
2017-12-13T12:51:15.678Z,958.81
2017-12-13T12:52:25.651Z,958.75
2017-12-13T12:53:35.728Z,958.74
2017-12-13T12:54:45.169Z,958.74
2017-12-13T12:55:54.882Z,958.71
2017-12-13T12:57:04.376Z,958.68
2017-12-13T12:58:14.407Z,958.67
2017-12-13T12:59:24.377Z,958.63
2017-12-13T13:00:34.398Z,958.67
2017-12-13T13:01:44.656Z,958.61
2017-12-13T13:02:54.339Z,958.59
2017-12-13T13:04:04.600Z,958.56
2017-12-13T13:05:14.862Z,958.56
2017-12-13T13:06:24.823Z,958.5
2017-12-13T13:07:34.898Z,958.45
2017-12-13T13:08:45.364Z,958.42
2017-12-13T13:09:55.622Z,958.43
2017-12-13T13:11:05.597Z,958.39
2017-12-13T13:12:15.287Z,958.38
2017-12-13T13:13:25.539Z,958.35
2017-12-13T13:14:35.521Z,958.35
2017-12-13T13:15:45.699Z,958.33
2017-12-13T13:16:55.958Z,958.25
2017-12-13T13:18:05.939Z,958.26
2017-12-13T13:19:16.202Z,958.2
2017-12-13T13:20:26.468Z,958.25
2017-12-13T13:21:36.452Z,958.18
2017-12-13T13:22:46.432Z,958.22
2017-12-13T13:23:56.709Z,958.22
2017-12-13T13:25:06.985Z,958.23
2017-12-13T13:26:17.751Z,958.17
2017-12-13T13:27:27.727Z,958.14
2017-12-13T13:28:37.715Z,958.14
2017-12-13T13:29:47.694Z,958.09
2017-12-13T13:30:57.959Z,958.07
2017-12-13T13:32:08.934Z,958.08
2017-12-13T13:33:19.200Z,958.09
2017-12-13T13:34:29.663Z,958.05
2017-12-13T13:35:39.927Z,958.02
2017-12-13T13:36:49.912Z,957.98
2017-12-13T13:38:00.175Z,957.98
2017-12-13T13:39:10.445Z,957.93
2017-12-13T13:40:20.709Z,957.92
2017-12-13T13:41:30.973Z,957.93
2017-12-13T13:42:41.248Z,957.87
2017-12-13T13:43:51.516Z,957.8
2017-12-13T13:45:01.780Z,957.77
2017-12-13T13:46:11.862Z,957.76
2017-12-13T13:47:21.837Z,957.7
2017-12-13T13:48:32.085Z,957.73
2017-12-13T13:49:42.403Z,957.74
2017-12-13T13:50:52.652Z,957.74
2017-12-13T13:52:02.833Z,957.68
2017-12-13T13:53:12.812Z,957.7
2017-12-13T13:54:23.070Z,957.66
2017-12-13T13:55:33.320Z,957.68
2017-12-13T13:56:43.566Z,957.63
2017-12-13T13:57:53.820Z,957.67
2017-12-13T13:59:04.077Z,957.64
2017-12-13T14:00:14.321Z,957.61
2017-12-13T14:01:24.282Z,957.59
2017-12-13T14:02:34.243Z,957.55
2017-12-13T14:03:44.361Z,957.56
2017-12-13T14:04:54.327Z,957.59
2017-12-13T14:06:04.587Z,957.6
2017-12-13T14:07:14.835Z,957.56
2017-12-13T14:08:24.796Z,957.49
2017-12-13T14:09:35.057Z,957.5
2017-12-13T14:10:45.020Z,957.46
2017-12-13T14:11:55.269Z,957.41
2017-12-13T14:13:05.521Z,957.41
2017-12-13T14:14:15.776Z,957.38
2017-12-13T14:15:25.742Z,957.4
2017-12-13T14:16:35.988Z,957.39
2017-12-13T14:17:46.234Z,957.4
2017-12-13T14:18:56.201Z,957.33
2017-12-13T14:20:06.446Z,957.29
2017-12-13T14:21:16.698Z,957.25
2017-12-13T14:22:26.662Z,957.22
2017-12-13T14:23:36.906Z,957.2
2017-12-13T14:24:47.205Z,957.2
2017-12-13T14:25:57.449Z,957.2
2017-12-13T14:27:07.747Z,957.16
2017-12-13T14:28:18.110Z,957.15
2017-12-13T14:29:28.089Z,957.15
2017-12-13T14:30:38.350Z,957.12
2017-12-13T14:31:48.317Z,957.12
2017-12-13T14:32:58.624Z,957.05
2017-12-13T14:34:08.877Z,956.99
2017-12-13T14:35:19.129Z,957.02
2017-12-13T14:36:29.103Z,957.01
2017-12-13T14:37:39.073Z,956.95
2017-12-13T14:38:49.092Z,956.96
2017-12-13T14:39:59.052Z,956.96